Time;durP1;ratioP1;P1;durP2;ratioP2;P2;SDS_P1;SDS_P2;PMS_P1;PMS_P2;Temp;Humidity;BMP_temperature;BMP_pressure;BME280_temperature;BME280_humidity;BME280_pressure;Samples;Min_cycle;Max_cycle;Signal;HPM_P1;HPM_P2
2023/05/07 00:00:23;;;;;;;7.70;6.23;;;;;;;15.26;58.22;94851.94;5132284;27;20204;-44
2023/05/07 00:02:50;;;;;;;8.87;6.27;;;;;;;15.28;58.33;94854.34;5131810;27;20704;-46
2023/05/07 00:05:18;;;;;;;7.87;6.23;;;;;;;15.27;58.23;94858.69;5132250;27;20645;-46
2023/05/07 00:07:45;;;;;;;9.03;6.50;;;;;;;15.18;58.45;94843.41;5132170;27;20287;-42
2023/05/07 00:10:13;;;;;;;8.47;5.80;;;;;;;15.22;58.57;94865.31;5132215;27;20199;-43
2023/05/07 00:12:41;;;;;;;8.43;6.97;;;;;;;15.18;58.56;94864.81;5132256;27;20204;-44
2023/05/07 00:15:09;;;;;;;7.60;6.00;;;;;;;15.15;58.66;94857.41;5132264;27;20295;-48
2023/05/07 00:17:35;;;;;;;10.13;6.27;;;;;;;15.13;58.88;94861.94;5131947;27;20180;-45
2023/05/07 00:20:03;;;;;;;7.47;5.87;;;;;;;15.11;58.99;94852.75;5131779;27;20195;-45
2023/05/07 00:22:32;;;;;;;11.20;5.70;;;;;;;15.03;59.11;94836.34;5131848;27;20227;-45
2023/05/07 00:25:00;;;;;;;7.00;6.00;;;;;;;15.05;58.88;94849.06;5131910;27;20228;-47
2023/05/07 00:27:26;;;;;;;7.37;5.53;;;;;;;15.02;59.07;94847.59;5131521;27;20194;-47
2023/05/07 00:29:53;;;;;;;6.70;5.90;;;;;;;14.93;59.08;94840.81;5131662;27;20188;-45
2023/05/07 00:32:20;;;;;;;8.77;6.17;;;;;;;14.86;59.27;94823.63;5130926;27;20202;-45
2023/05/07 00:34:47;;;;;;;6.00;5.40;;;;;;;14.87;59.24;94830.38;5131521;27;20188;-46
2023/05/07 00:37:14;;;;;;;7.80;6.10;;;;;;;14.92;59.34;94852.09;5131592;27;20706;-46
2023/05/07 00:39:42;;;;;;;7.97;6.13;;;;;;;14.91;59.46;94844.56;5131302;27;20279;-46
2023/05/07 00:42:09;;;;;;;7.73;5.70;;;;;;;14.86;59.43;94845.03;5131517;27;20635;-45
2023/05/07 00:44:35;;;;;;;7.23;5.57;;;;;;;14.41;59.65;94781.06;5131875;27;20212;-46
2023/05/07 00:47:05;;;;;;;6.47;5.83;;;;;;;14.84;59.71;94856.44;5136020;27;20211;-44
2023/05/07 00:49:38;;;;;;;6.43;5.53;;;;;;;14.80;59.78;94854.19;5134180;27;20192;-43
2023/05/07 00:52:06;;;;;;;7.33;5.60;;;;;;;14.77;59.89;94853.72;5131619;27;20687;-46
2023/05/07 00:54:34;;;;;;;6.63;5.10;;;;;;;14.70;59.73;94845.00;5131260;27;20287;-46
2023/05/07 00:57:03;;;;;;;8.77;5.53;;;;;;;14.63;60.10;94844.81;5131207;27;20190;-46
2023/05/07 00:59:31;;;;;;;6.80;5.43;;;;;;;14.71;60.04;94862.84;5131144;27;20363;-45
2023/05/07 01:01:57;;;;;;;6.07;5.47;;;;;;;14.68;60.05;94860.63;5131430;27;20184;-45
2023/05/07 01:04:24;;;;;;;6.93;5.57;;;;;;;14.66;59.97;94852.25;5130820;27;20600;-47
2023/05/07 01:06:52;;;;;;;7.13;5.83;;;;;;;14.59;60.24;94845.31;5131246;27;20185;-45
2023/05/07 01:09:20;;;;;;;9.07;5.93;;;;;;;14.62;60.27;94855.28;5131248;27;20557;-48
2023/05/07 01:11:48;;;;;;;6.13;5.43;;;;;;;14.59;60.25;94860.75;5130068;27;20303;-46
2023/05/07 01:14:17;;;;;;;6.73;5.47;;;;;;;14.57;60.43;94852.38;5131001;27;20192;-43
2023/05/07 01:16:44;;;;;;;7.90;5.43;;;;;;;14.54;60.44;94859.44;5130843;27;20720;-45
2023/05/07 01:19:13;;;;;;;7.97;5.10;;;;;;;14.51;60.61;94854.63;5130928;27;20340;-45
2023/05/07 01:21:46;;;;;;;7.43;5.60;;;;;;;14.48;60.63;94857.50;5130549;27;20602;-45
2023/05/07 01:24:15;;;;;;;6.47;5.37;;;;;;;14.47;60.73;94858.47;5130423;27;20620;-47
2023/05/07 01:26:42;;;;;;;6.70;5.40;;;;;;;14.45;60.80;94862.94;5130324;27;20181;-47
2023/05/07 01:29:09;;;;;;;7.27;5.33;;;;;;;14.44;60.80;94852.81;5130567;27;20927;-45
2023/05/07 01:31:38;;;;;;;6.90;5.57;;;;;;;14.41;61.15;94859.06;5130344;27;20191;-45
2023/05/07 01:34:08;;;;;;;6.10;5.03;;;;;;;14.40;60.97;94852.31;5130544;27;20689;-45
2023/05/07 01:36:35;;;;;;;7.43;5.57;;;;;;;14.39;61.05;94860.19;5130050;27;20195;-43
2023/05/07 01:39:04;;;;;;;8.00;5.70;;;;;;;14.38;61.20;94854.25;5130463;27;20188;-45
2023/05/07 01:41:32;;;;;;;6.20;5.53;;;;;;;14.36;61.35;94848.44;5130048;27;20192;-47
2023/05/07 01:44:00;;;;;;;7.63;5.53;;;;;;;14.34;61.24;94847.81;5130130;27;20219;-45
2023/05/07 01:46:27;;;;;;;6.33;5.73;;;;;;;14.31;61.39;94841.19;5130074;27;20189;-47
2023/05/07 01:48:54;;;;;;;7.33;5.60;;;;;;;14.29;61.52;94840.56;5128973;27;20184;-45
2023/05/07 01:51:22;;;;;;;6.73;4.97;;;;;;;14.29;61.66;94838.00;5130282;27;20204;-46
2023/05/07 01:53:50;;;;;;;6.70;5.33;;;;;;;14.16;61.67;94822.19;5130375;27;20263;-43
2023/05/07 01:56:18;;;;;;;6.70;5.40;;;;;;;14.25;61.71;94836.69;5130345;27;20231;-45
2023/05/07 01:58:46;;;;;;;6.80;5.23;;;;;;;14.20;61.86;94820.91;5130168;27;20595;-42
2023/05/07 02:01:14;;;;;;;8.50;5.40;;;;;;;14.21;61.85;94821.72;5128569;27;20645;-43
2023/05/07 02:03:41;;;;;;;5.80;5.20;;;;;;;14.12;61.82;94814.94;5130067;27;20735;-47
2023/05/07 02:06:08;;;;;;;6.20;4.83;;;;;;;14.18;62.01;94832.31;5129968;28;20188;-42
2023/05/07 02:08:34;;;;;;;5.73;5.13;;;;;;;14.16;62.00;94821.38;5129880;28;20640;-43
2023/05/07 02:11:01;;;;;;;7.67;4.77;;;;;;;14.13;62.01;94825.06;5130276;28;20188;-45
2023/05/07 02:13:30;;;;;;;6.20;4.93;;;;;;;14.02;61.93;94805.56;5129880;27;20196;-45
2023/05/07 02:15:59;;;;;;;6.10;4.47;;;;;;;14.10;61.83;94816.84;5130084;28;20188;-45
2023/05/07 02:18:25;;;;;;;6.93;5.27;;;;;;;14.08;62.05;94818.78;5129706;28;20252;-43
2023/05/07 02:20:52;;;;;;;6.60;5.03;;;;;;;14.06;61.96;94818.94;5129972;28;20200;-42
2023/05/07 02:23:19;;;;;;;5.73;4.13;;;;;;;14.03;62.15;94814.94;5129533;28;20274;-43
2023/05/07 02:25:46;;;;;;;5.30;4.47;;;;;;;14.02;62.17;94820.19;5130241;27;20184;-43
2023/05/07 02:28:13;;;;;;;5.40;4.53;;;;;;;13.96;62.22;94813.94;5129914;28;20224;-45
2023/05/07 02:30:40;;;;;;;7.10;5.00;;;;;;;13.95;62.10;94814.91;5129599;27;20195;-44
2023/05/07 02:33:09;;;;;;;8.63;5.00;;;;;;;13.97;62.11;94812.16;5129588;28;20188;-46
2023/05/07 02:35:36;;;;;;;7.03;4.40;;;;;;;13.92;62.10;94810.06;5129637;28;20610;-45
2023/05/07 02:38:03;;;;;;;5.30;4.80;;;;;;;13.93;62.13;94816.00;5129808;28;20227;-48
2023/05/07 02:40:29;;;;;;;5.27;4.73;;;;;;;13.85;62.24;94813.38;5129990;28;20196;-44
2023/05/07 02:42:56;;;;;;;11.27;5.57;;;;;;;13.88;62.32;94821.59;5129476;28;20184;-43
2023/05/07 02:45:23;;;;;;;5.23;4.40;;;;;;;13.85;62.39;94818.53;5129981;28;20196;-45
2023/05/07 02:47:50;;;;;;;4.97;4.47;;;;;;;13.83;62.35;94813.56;5129643;28;20192;-45
2023/05/07 02:50:18;;;;;;;7.40;5.10;;;;;;;13.80;62.54;94811.28;5128895;28;20185;-45
2023/05/07 02:52:45;;;;;;;7.60;5.20;;;;;;;13.82;62.51;94819.66;5129728;28;20196;-45
2023/05/07 02:55:12;;;;;;;5.90;5.10;;;;;;;13.80;62.58;94819.78;5128062;27;20645;-45
2023/05/07 02:57:39;;;;;;;6.23;4.77;;;;;;;13.79;62.76;94825.91;5133574;27;20185;-45
2023/05/07 03:00:14;;;;;;;10.20;5.07;;;;;;;13.67;62.74;94816.03;5133243;27;20188;-45
2023/05/07 03:02:41;;;;;;;6.97;5.13;;;;;;;13.77;62.69;94834.72;5133509;27;20601;-47
2023/05/07 03:05:08;;;;;;;6.10;5.20;;;;;;;13.75;62.70;94834.88;5132915;27;20676;-46
2023/05/07 03:07:36;;;;;;;6.27;5.20;;;;;;;13.70;62.65;94829.41;5133309;27;20275;-45
2023/05/07 03:10:04;;;;;;;5.70;5.10;;;;;;;13.73;62.58;94836.81;5133443;27;20561;-46
2023/05/07 03:12:31;;;;;;;6.40;5.00;;;;;;;13.73;62.77;94836.81;5133580;27;20196;-44
2023/05/07 03:14:57;;;;;;;5.27;4.53;;;;;;;13.73;62.73;94836.81;5133133;27;20256;-46
2023/05/07 03:17:24;;;;;;;6.13;4.97;;;;;;;13.73;62.83;94836.81;5133292;27;20188;-46
2023/05/07 03:19:51;;;;;;;5.00;4.10;;;;;;;13.74;62.91;94840.19;5132728;27;20185;-45
2023/05/07 03:22:18;;;;;;;6.20;5.10;;;;;;;13.74;62.89;94843.56;5133163;27;20346;-46
2023/05/07 03:24:46;;;;;;;6.93;5.23;;;;;;;13.75;62.89;94841.78;5132917;27;20264;-46
2023/05/07 03:27:13;;;;;;;6.23;4.67;;;;;;;13.75;62.87;94842.59;5132888;27;20638;-47
2023/05/07 03:29:39;;;;;;;6.57;4.83;;;;;;;13.76;62.68;94843.41;5132855;27;20192;-45
2023/05/07 03:32:06;;;;;;;7.77;4.63;;;;;;;13.77;62.89;94843.25;5132759;27;20261;-46
2023/05/07 03:34:33;;;;;;;6.13;5.00;;;;;;;13.79;62.79;94843.91;5133241;27;20279;-46
2023/05/07 03:37:00;;;;;;;7.67;5.90;;;;;;;13.79;62.75;94843.91;5132990;27;20203;-43
2023/05/07 03:39:26;;;;;;;7.63;5.07;;;;;;;13.84;62.66;94843.44;5133183;27;20249;-45
2023/05/07 03:41:55;;;;;;;6.77;5.60;;;;;;;13.84;62.83;94847.78;5132636;27;20192;-46
2023/05/07 03:44:21;;;;;;;8.27;4.80;;;;;;;13.91;62.57;94854.72;5132677;27;20227;-46
2023/05/07 03:46:48;;;;;;;6.33;5.10;;;;;;;13.95;62.53;94852.66;5132373;27;20557;-45
2023/05/07 03:49:15;;;;;;;5.43;4.93;;;;;;;13.99;62.42;94859.09;5132637;27;20192;-45
2023/05/07 03:51:42;;;;;;;5.87;4.67;;;;;;;14.03;62.43;94866.34;5132451;27;20184;-45
2023/05/07 03:54:09;;;;;;;7.00;5.10;;;;;;;14.07;62.64;94866.81;5132868;27;20183;-46
2023/05/07 03:56:36;;;;;;;5.87;5.30;;;;;;;14.09;62.26;94857.22;5132451;27;20200;-48
2023/05/07 03:59:04;;;;;;;7.07;5.07;;;;;;;14.18;62.39;94863.19;5132402;27;20841;-45
2023/05/07 04:01:31;;;;;;;4.97;4.57;;;;;;;14.23;62.25;94860.94;5132469;27;20283;-42
2023/05/07 04:03:57;;;;;;;5.77;5.10;;;;;;;14.28;62.16;94872.38;5131911;27;20216;-44
2023/05/07 04:06:25;;;;;;;5.80;5.23;;;;;;;14.34;62.04;94870.97;5132329;27;20271;-45
2023/05/07 04:08:51;;;;;;;11.67;5.07;;;;;;;14.40;62.05;94879.81;5131891;27;20208;-44
2023/05/07 04:11:18;;;;;;;7.60;5.73;;;;;;;14.45;61.80;94882.72;5132496;27;20184;-43
2023/05/07 04:13:45;;;;;;;6.00;4.80;;;;;;;14.51;61.80;94892.44;5131905;27;20222;-47
2023/05/07 04:16:13;;;;;;;5.33;4.83;;;;;;;14.54;61.58;94895.47;5132278;27;20253;-51
2023/05/07 04:18:40;;;;;;;6.43;4.63;;;;;;;14.63;61.38;94901.44;5131683;27;20207;-46
2023/05/07 04:21:14;;;;;;;8.07;5.03;;;;;;;14.70;61.38;94899.06;5132148;27;20561;-47
2023/05/07 04:23:41;;;;;;;6.83;5.10;;;;;;;14.78;61.32;94906.81;5131580;27;20669;-46
2023/05/07 04:26:07;;;;;;;6.10;4.77;;;;;;;14.85;61.17;94905.19;5132089;27;20188;-47
2023/05/07 04:28:35;;;;;;;7.17;5.07;;;;;;;14.92;61.05;94906.19;5132110;27;20212;-46
2023/05/07 04:31:01;;;;;;;6.33;5.10;;;;;;;15.01;60.86;94912.94;5132002;27;20199;-45
2023/05/07 04:33:30;;;;;;;6.67;5.40;;;;;;;15.06;60.74;94909.91;5131583;27;20188;-45
2023/05/07 04:35:57;;;;;;;7.60;4.87;;;;;;;15.15;60.73;94914.09;5131762;27;20625;-44
2023/05/07 04:38:24;;;;;;;6.17;4.77;;;;;;;15.22;60.66;94909.91;5132682;27;20192;-54
2023/05/07 04:40:51;;;;;;;5.70;5.10;;;;;;;15.33;60.60;94916.53;5134932;27;20283;-49
2023/05/07 04:43:17;;;;;;;6.20;4.60;;;;;;;15.43;60.33;94924.91;5134150;27;20263;-46
2023/05/07 04:45:45;;;;;;;7.83;5.60;;;;;;;15.61;60.18;94918.75;5131375;27;20291;-46
2023/05/07 04:48:11;;;;;;;5.90;4.80;;;;;;;15.90;59.68;94918.28;5131419;27;20192;-45
2023/05/07 04:50:40;;;;;;;4.80;4.40;;;;;;;16.31;59.11;94922.31;5131301;27;20546;-46
2023/05/07 04:53:07;;;;;;;5.50;5.00;;;;;;;16.90;59.57;94921.91;5131564;27;20180;-47
2023/05/07 04:55:34;;;;;;;4.57;4.13;;;;;;;17.58;59.16;94917.72;5131564;27;20188;-46
2023/05/07 04:58:01;;;;;;;6.87;4.80;;;;;;;18.34;58.42;94915.00;5131345;27;20661;-46
2023/05/07 05:00:28;;;;;;;6.77;4.50;;;;;;;19.17;57.38;94914.59;5130775;27;20568;-48
2023/05/07 05:02:55;;;;;;;4.67;4.20;;;;;;;20.05;56.37;94915.09;5130943;27;20192;-45
2023/05/07 05:05:22;;;;;;;4.13;3.53;;;;;;;20.96;55.29;94917.53;5130930;27;20705;-48
2023/05/07 05:07:51;;;;;;;5.10;4.27;;;;;;;21.82;54.26;94899.41;5131690;27;20225;-47
2023/05/07 05:10:18;;;;;;;5.20;3.80;;;;;;;22.86;52.77;94915.97;5132040;27;20573;-48
2023/05/07 05:12:45;;;;;;;4.22;3.72;;;;;;;23.85;51.34;94917.97;5131530;27;20189;-47
2023/05/07 05:15:12;;;;;;;4.07;3.60;;;;;;;24.79;50.19;94921.25;5131021;27;20226;-42
2023/05/07 05:17:39;;;;;;;4.07;3.67;;;;;;;25.71;49.38;94920.97;5130922;27;20188;-46
2023/05/07 05:20:07;;;;;;;4.47;3.85;;;;;;;26.62;48.20;94916.97;5130175;27;20652;-45
2023/05/07 05:22:34;;;;;;;7.00;4.00;;;;;;;27.49;46.96;94922.00;5130549;27;20184;-47
2023/05/07 05:25:02;;;;;;;4.07;3.67;;;;;;;28.39;45.53;94922.09;5130902;27;20303;-46
2023/05/07 05:27:29;;;;;;;5.10;3.53;;;;;;;29.21;44.37;94926.50;5130903;27;20261;-45
2023/05/07 05:29:56;;;;;;;3.85;3.53;;;;;;;29.99;43.33;94927.69;5130537;27;20548;-44
2023/05/07 05:32:23;;;;;;;3.83;3.50;;;;;;;30.72;42.62;94922.63;5130120;27;20205;-47
2023/05/07 05:34:50;;;;;;;5.90;3.70;;;;;;;31.45;41.59;94927.06;5130584;27;20207;-45
2023/05/07 05:37:17;;;;;;;4.13;3.40;;;;;;;32.15;40.96;94930.75;5130605;27;20181;-45
2023/05/07 05:39:44;;;;;;;4.88;3.88;;;;;;;32.83;39.99;94930.34;5130224;27;20180;-44
2023/05/07 05:42:12;;;;;;;5.20;3.80;;;;;;;33.50;39.29;94935.31;5130040;27;20188;-47
2023/05/07 05:44:39;;;;;;;3.83;3.53;;;;;;;34.14;38.68;94940.38;5130416;27;20216;-46
2023/05/07 05:47:06;;;;;;;4.95;3.42;;;;;;;34.75;37.92;94938.97;5130264;27;20191;-46
2023/05/07 05:49:33;;;;;;;3.38;3.08;;;;;;;35.32;37.30;94933.75;5130547;27;20184;-44
2023/05/07 05:52:00;;;;;;;3.53;3.22;;;;;;;35.88;36.63;94930.25;5130409;27;20241;-53
2023/05/07 05:54:27;;;;;;;2.88;2.67;;;;;;;36.43;36.08;94935.72;5130531;27;20188;-48
2023/05/07 05:56:53;;;;;;;5.38;3.70;;;;;;;36.96;35.71;94931.78;5130423;27;20196;-48
2023/05/07 05:59:22;;;;;;;3.30;2.83;;;;;;;37.52;35.12;94936.72;5130120;27;20194;-47
2023/05/07 06:01:49;;;;;;;3.42;3.15;;;;;;;38.04;34.37;94941.66;5130356;27;20657;-47
2023/05/07 06:04:15;;;;;;;3.40;3.10;;;;;;;38.55;34.33;94948.38;5130176;27;20358;-46
2023/05/07 06:06:42;;;;;;;3.45;3.15;;;;;;;39.03;33.51;94942.25;5130804;28;20249;-50
2023/05/07 06:09:09;;;;;;;3.05;2.85;;;;;;;39.48;33.08;94939.34;5130161;27;20694;-44
2023/05/07 06:11:36;;;;;;;3.50;3.20;;;;;;;39.88;32.91;94940.75;5130658;27;20181;-48
2023/05/07 06:14:03;;;;;;;3.42;3.13;;;;;;;40.29;32.41;94935.97;5130065;28;20180;-47
2023/05/07 06:16:31;;;;;;;4.65;3.20;;;;;;;40.70;31.67;94942.59;5130678;27;20218;-47
2023/05/07 06:18:58;;;;;;;3.70;3.20;;;;;;;41.01;31.30;94929.66;5130180;28;20240;-50
2023/05/07 06:21:25;;;;;;;3.15;2.85;;;;;;;41.43;31.18;94939.66;5130331;28;20237;-49
2023/05/07 06:23:52;;;;;;;3.50;3.20;;;;;;;41.75;30.54;94930.84;5130007;28;20236;-47
2023/05/07 06:26:19;;;;;;;5.07;3.10;;;;;;;42.09;30.74;94937.03;5130456;28;20187;-49
2023/05/07 06:28:45;;;;;;;4.05;3.38;;;;;;;42.41;30.25;94931.97;5130022;27;20636;-46
2023/05/07 06:31:13;;;;;;;3.72;3.20;;;;;;;42.70;29.92;94936.34;5131049;27;20235;-50
2023/05/07 06:33:43;;;;;;;3.38;3.13;;;;;;;42.95;29.60;94923.69;5134259;27;20256;-49
2023/05/07 06:36:09;;;;;;;3.22;2.88;;;;;;;43.22;29.42;94920.28;5133975;27;20184;-47
2023/05/07 06:38:36;;;;;;;3.20;2.90;;;;;;;43.48;29.50;94917.19;5134273;27;20214;-49
2023/05/07 06:41:03;;;;;;;4.13;3.03;;;;;;;43.72;29.08;94915.53;5134277;27;20176;-49
2023/05/07 06:43:30;;;;;;;4.13;3.70;;;;;;;43.98;28.79;94907.00;5133962;27;20184;-47
2023/05/07 06:45:57;;;;;;;4.30;3.10;;;;;;;44.22;28.29;94914.19;5133690;27;20226;-47
2023/05/07 06:48:23;;;;;;;3.30;3.00;;;;;;;44.45;28.44;94903.59;5134196;27;20184;-48
2023/05/07 06:50:52;;;;;;;3.38;3.08;;;;;;;44.48;28.48;94884.78;5134118;27;20192;-50
2023/05/07 06:53:18;;;;;;;4.22;3.65;;;;;;;44.80;27.97;94899.03;5134096;27;20192;-51
2023/05/07 06:55:45;;;;;;;3.00;2.75;;;;;;;44.99;28.08;94897.50;5134548;27;20203;-48
2023/05/07 06:58:12;;;;;;;3.40;3.10;;;;;;;45.14;27.77;94904.81;5134230;27;20763;-48
2023/05/07 07:00:39;;;;;;;3.63;3.33;;;;;;;45.29;27.61;94903.94;5134355;27;20191;-48
2023/05/07 07:03:05;;;;;;;2.85;2.65;;;;;;;45.39;27.66;94901.84;5134306;27;20188;-47
2023/05/07 07:05:32;;;;;;;3.53;3.22;;;;;;;45.50;27.03;94913.66;5133777;27;20239;-51
2023/05/07 07:08:01;;;;;;;6.68;3.10;;;;;;;45.61;27.42;94905.78;5133419;27;20266;-47
2023/05/07 07:10:27;;;;;;;5.80;3.20;;;;;;;45.70;26.79;94906.34;5133491;27;20657;-48
2023/05/07 07:12:54;;;;;;;3.42;3.13;;;;;;;45.73;26.87;94901.00;5134622;27;20628;-44
2023/05/07 07:15:21;;;;;;;4.13;3.72;;;;;;;45.69;26.77;94886.63;5133441;27;20286;-47
2023/05/07 07:17:49;;;;;;;3.00;2.80;;;;;;;45.86;26.99;94903.56;5133427;27;20222;-48
2023/05/07 07:20:16;;;;;;;3.30;3.10;;;;;;;45.91;26.99;94903.28;5133530;27;20180;-43
2023/05/07 07:22:42;;;;;;;4.85;3.17;;;;;;;45.95;26.48;94894.09;5133389;27;20274;-46
2023/05/07 07:25:11;;;;;;;4.63;3.40;;;;;;;46.00;27.02;94891.06;5132886;27;20765;-47
2023/05/07 07:27:39;;;;;;;3.33;3.13;;;;;;;46.04;26.54;94894.63;5132830;27;20652;-46
2023/05/07 07:30:07;;;;;;;3.38;3.03;;;;;;;46.04;26.37;94894.63;5133085;27;20220;-47
2023/05/07 07:32:34;;;;;;;3.65;3.30;;;;;;;46.04;26.33;94894.63;5132700;27;20709;-44
2023/05/07 07:35:02;;;;;;;3.65;3.33;;;;;;;45.94;26.75;94880.91;5132895;27;20664;-46
2023/05/07 07:37:29;;;;;;;3.50;3.13;;;;;;;45.99;26.16;94894.94;5132830;27;20184;-47
2023/05/07 07:39:56;;;;;;;3.88;3.10;;;;;;;45.96;26.72;94902.97;5132992;27;20199;-46
2023/05/07 07:42:24;;;;;;;3.33;3.08;;;;;;;45.91;26.15;94905.97;5132851;27;20203;-48
2023/05/07 07:44:51;;;;;;;3.83;3.45;;;;;;;45.88;26.48;94902.06;5132440;27;20228;-44
2023/05/07 07:47:18;;;;;;;3.63;3.33;;;;;;;45.81;26.71;94904.63;5132453;27;20192;-46
2023/05/07 07:49:44;;;;;;;3.20;2.95;;;;;;;45.76;26.09;94905.66;5132564;27;20301;-46
2023/05/07 07:52:11;;;;;;;3.58;3.28;;;;;;;45.69;26.60;94910.19;5132695;27;20668;-48
2023/05/07 07:54:38;;;;;;;4.95;3.38;;;;;;;45.55;26.47;94916.84;5132721;27;20184;-45
2023/05/07 07:57:05;;;;;;;3.50;3.13;;;;;;;45.44;26.66;94907.78;5132570;27;20175;-49
2023/05/07 07:59:34;;;;;;;3.85;3.00;;;;;;;45.35;26.70;94912.59;5132431;27;20408;-47
2023/05/07 08:02:00;;;;;;;3.13;2.92;;;;;;;45.23;26.27;94899.19;5132175;27;20195;-47
2023/05/07 08:04:27;;;;;;;3.20;2.90;;;;;;;45.13;26.64;94897.84;5132183;27;20192;-48
2023/05/07 08:06:55;;;;;;;5.07;3.45;;;;;;;45.03;26.21;94899.16;5132446;27;20192;-48
2023/05/07 08:09:22;;;;;;;4.07;3.08;;;;;;;44.88;26.33;94893.81;5132268;27;20283;-48
2023/05/07 08:11:49;;;;;;;3.97;3.28;;;;;;;44.75;26.92;94895.84;5132355;27;20192;-45
2023/05/07 08:14:16;;;;;;;4.53;3.00;;;;;;;44.49;26.81;94875.56;5132436;27;20250;-46
2023/05/07 08:16:44;;;;;;;3.42;3.00;;;;;;;44.50;26.33;94900.63;5132035;27;20635;-48
2023/05/07 08:19:11;;;;;;;3.75;3.08;;;;;;;44.37;26.58;94893.75;5132163;27;20243;-50
2023/05/07 08:21:40;;;;;;;3.42;3.08;;;;;;;44.21;26.94;94893.72;5132202;27;20191;-49
2023/05/07 08:24:07;;;;;;;3.05;2.85;;;;;;;44.05;26.99;94894.50;5132039;27;20277;-51
2023/05/07 08:26:35;;;;;;;3.28;2.78;;;;;;;43.89;27.01;94891.00;5131629;27;20706;-48
2023/05/07 08:29:02;;;;;;;4.38;3.13;;;;;;;43.71;26.59;94889.72;5132111;27;20184;-44
2023/05/07 08:31:29;;;;;;;4.55;3.38;;;;;;;43.53;27.18;94881.19;5131852;27;20188;-45
2023/05/07 08:33:58;;;;;;;3.75;3.13;;;;;;;43.37;27.25;94889.16;5135478;27;20191;-48
2023/05/07 08:36:25;;;;;;;5.70;3.38;;;;;;;43.20;27.26;94886.75;5136064;27;20256;-47
2023/05/07 08:38:52;;;;;;;3.95;3.33;;;;;;;42.99;26.75;94886.88;5131366;27;20182;-44
2023/05/07 08:41:20;;;;;;;3.30;3.00;;;;;;;42.80;26.76;94884.78;5124149;27;20239;-46
2023/05/07 08:43:49;;;;;;;3.20;3.00;;;;;;;42.58;27.03;94881.44;5131028;27;20218;-46
2023/05/07 08:46:19;;;;;;;3.33;3.03;;;;;;;42.05;27.64;94829.38;5131684;27;20276;-50
2023/05/07 08:48:46;;;;;;;3.60;3.28;;;;;;;42.07;27.37;94862.09;5131682;27;20245;-49
2023/05/07 08:51:17;;;;;;;3.05;2.85;;;;;;;41.95;27.27;94872.81;5131487;27;20196;-47
2023/05/07 08:53:44;;;;;;;3.65;3.10;;;;;;;41.67;27.34;94863.75;5130730;27;20188;-48
2023/05/07 08:56:12;;;;;;;4.95;3.05;;;;;;;41.51;27.76;94864.41;5131583;27;20187;-48
2023/05/07 08:58:39;;;;;;;4.97;3.30;;;;;;;41.33;27.71;94861.06;5131525;27;20187;-49
2023/05/07 09:01:09;;;;;;;4.57;3.25;;;;;;;41.08;28.02;94862.84;5131249;27;20620;-47
2023/05/07 09:03:38;;;;;;;3.45;3.17;;;;;;;40.79;27.99;94858.28;5131675;27;20219;-46
2023/05/07 09:06:05;;;;;;;3.88;3.10;;;;;;;40.27;28.28;94814.88;5131383;27;20223;-49
2023/05/07 09:08:36;;;;;;;3.72;3.38;;;;;;;40.27;28.33;94858.53;5130726;27;20661;-48
2023/05/07 09:11:03;;;;;;;3.72;3.42;;;;;;;39.91;28.41;94839.44;5131679;27;20188;-46
2023/05/07 09:13:30;;;;;;;3.40;3.08;;;;;;;39.68;28.21;94852.22;5133088;27;20183;-47
2023/05/07 09:15:57;;;;;;;3.15;2.95;;;;;;;39.33;28.58;94828.94;5131203;27;20203;-44
2023/05/07 09:18:25;;;;;;;3.70;3.22;;;;;;;39.12;28.86;94844.84;5130864;27;20192;-46
2023/05/07 09:20:52;;;;;;;3.60;3.30;;;;;;;38.87;28.88;94840.28;5131142;27;20275;-48
2023/05/07 09:23:18;;;;;;;3.70;3.30;;;;;;;38.59;28.76;94832.50;5131280;27;20281;-46
2023/05/07 09:25:47;;;;;;;3.50;3.20;;;;;;;38.35;28.92;94830.25;5130878;27;20228;-46
2023/05/07 09:28:14;;;;;;;3.72;3.17;;;;;;;38.10;29.08;94831.72;5130450;27;20200;-48
2023/05/07 09:30:41;;;;;;;3.10;2.90;;;;;;;37.91;29.23;94833.81;5130988;27;20245;-46
2023/05/07 09:33:08;;;;;;;3.58;3.22;;;;;;;37.70;29.26;94832.72;5130815;27;20176;-46
2023/05/07 09:35:35;;;;;;;4.13;3.53;;;;;;;37.49;29.42;94824.47;5130945;27;20196;-47
2023/05/07 09:38:03;;;;;;;3.10;2.90;;;;;;;37.28;29.58;94827.59;5130241;27;20188;-43
2023/05/07 09:40:31;;;;;;;3.63;3.22;;;;;;;37.05;29.42;94828.66;5130960;27;20295;-47
2023/05/07 09:43:11;;;;;;;4.25;2.92;;;;;;;36.81;29.47;94823.56;5130431;27;20192;-43
2023/05/07 09:45:38;;;;;;;3.30;3.00;;;;;;;36.59;29.66;94816.31;5130659;27;20314;-47
2023/05/07 09:48:07;;;;;;;3.50;3.20;;;;;;;36.42;29.58;94815.03;5130565;27;20672;-46
2023/05/07 09:50:37;;;;;;;5.72;3.58;;;;;;;36.27;29.61;94814.53;5130680;27;20630;-47
2023/05/07 09:53:05;;;;;;;3.47;3.10;;;;;;;36.10;29.72;94805.28;5130365;27;20596;-45
2023/05/07 09:55:32;;;;;;;3.60;2.80;;;;;;;35.89;29.34;94799.53;5130744;27;20184;-46
2023/05/07 09:58:02;;;;;;;5.35;2.80;;;;;;;35.82;29.75;94809.75;5130884;27;20191;-44
2023/05/07 10:00:29;;;;;;;5.05;3.17;;;;;;;35.68;29.58;94801.78;5131199;27;20188;-45
2023/05/07 10:02:58;;;;;;;3.22;2.90;;;;;;;35.55;29.63;94807.06;5130604;27;20198;-43
2023/05/07 10:05:26;;;;;;;3.17;2.72;;;;;;;35.37;29.99;94808.66;5130993;27;20208;-46
2023/05/07 10:07:54;;;;;;;3.22;2.97;;;;;;;35.19;29.59;94800.44;5130732;27;20252;-46
2023/05/07 10:10:21;;;;;;;3.28;2.97;;;;;;;35.00;29.58;94793.56;5130244;27;20192;-46
2023/05/07 10:12:48;;;;;;;3.88;2.97;;;;;;;34.94;30.11;94801.59;5130593;27;20197;-46
2023/05/07 10:15:17;;;;;;;4.13;3.67;;;;;;;34.77;30.04;94798.66;5130333;27;20188;-46
2023/05/07 10:17:44;;;;;;;4.32;3.22;;;;;;;34.65;29.96;94799.06;5130370;27;20180;-44
2023/05/07 10:20:11;;;;;;;5.28;3.50;;;;;;;34.51;30.13;94787.59;5129861;27;20444;-44
2023/05/07 10:22:42;;;;;;;3.80;2.95;;;;;;;34.32;30.15;94786.72;5130751;27;20184;-47
2023/05/07 10:25:15;;;;;;;4.78;2.80;;;;;;;34.13;30.26;94776.09;5130238;27;20320;-44
2023/05/07 10:27:44;;;;;;;3.15;2.85;;;;;;;33.86;30.11;94747.44;5130581;27;20573;-46
2023/05/07 10:30:22;;;;;;;4.68;3.17;;;;;;;33.91;30.61;94774.69;5130278;27;20279;-47
2023/05/07 10:32:51;;;;;;;3.95;3.08;;;;;;;33.86;30.27;94771.31;5130518;27;20184;-48
2023/05/07 10:35:22;;;;;;;7.38;3.20;;;;;;;33.71;30.45;94759.78;5130312;27;20192;-46
2023/05/07 10:37:50;;;;;;;3.33;2.85;;;;;;;33.61;30.46;94765.19;5130240;27;20184;-48
2023/05/07 10:40:19;;;;;;;3.00;2.78;;;;;;;33.52;30.54;94766.09;5130024;27;20231;-47
2023/05/07 10:42:59;;;;;;;2.70;2.50;;;;;;;33.32;30.90;94751.91;5128795;28;20215;-48
2023/05/07 10:45:28;;;;;;;3.72;3.42;;;;;;;33.29;30.96;94771.06;5130179;27;20199;-49
2023/05/07 10:48:12;;;;;;;3.40;3.10;;;;;;;33.14;30.69;94769.31;5130164;27;20545;-48
2023/05/07 10:50:40;;;;;;;3.17;2.88;;;;;;;33.03;30.44;94767.78;5130081;27;20665;-47
2023/05/07 10:53:28;;;;;;;3.40;2.92;;;;;;;32.89;30.74;94761.53;5130072;27;20293;-46
2023/05/07 10:56:33;;;;;;;4.85;2.70;;;;;;;32.75;30.91;94763.22;5129994;27;20235;-46
2023/05/07 10:59:40;;;;;;;4.13;3.30;;;;;;;32.61;30.71;94760.41;5006325;28;20300;-45
2023/05/07 11:02:10;;;;;;;4.10;2.72;;;;;;;32.46;31.17;94762.03;5006697;28;20200;-46
2023/05/07 11:04:38;;;;;;;3.33;3.03;;;;;;;32.37;30.78;94757.56;4990500;28;20573;-50
2023/05/07 11:07:30;;;;;;;4.72;3.13;;;;;;;32.26;31.09;94761.34;5006531;28;20248;-48
2023/05/07 11:10:05;;;;;;;2.95;2.75;;;;;;;32.13;31.12;94752.94;5009534;28;20709;-47
2023/05/07 11:12:54;;;;;;;4.30;2.97;;;;;;;32.03;31.27;94749.53;5016979;28;20187;-47
2023/05/07 11:15:43;;;;;;;3.17;2.97;;;;;;;31.91;31.06;94755.13;5006420;28;20372;-50
2023/05/07 11:18:12;;;;;;;3.05;2.72;;;;;;;31.80;31.17;94748.25;5008971;28;20188;-47
2023/05/07 11:20:50;;;;;;;3.00;2.78;;;;;;;31.68;31.45;94741.41;5009816;28;20684;-45
2023/05/07 11:23:59;;;;;;;2.75;2.55;;;;;;;31.55;31.07;94736.69;5009984;28;20581;-48
2023/05/07 11:26:28;;;;;;;3.60;3.17;;;;;;;31.42;31.48;94732.75;5010176;28;20709;-48
2023/05/07 11:28:55;;;;;;;3.13;2.83;;;;;;;31.31;31.39;94725.91;5009720;28;20215;-45
2023/05/07 11:31:25;;;;;;;4.38;3.13;;;;;;;31.28;31.28;94728.25;5009740;28;20303;-45
2023/05/07 11:33:54;;;;;;;3.35;3.05;;;;;;;31.20;31.36;94730.38;5009792;28;20192;-46
2023/05/07 11:36:23;;;;;;;3.10;2.65;;;;;;;31.12;31.59;94732.75;5091419;27;20266;-46
2023/05/07 11:38:50;;;;;;;3.22;2.92;;;;;;;30.99;31.75;94731.44;5132345;27;20616;-48